METAR Data
IDs: Format: Raw Decoded Include TAF

Data at: 1343 UTC 14 Dec 2019

PAMH 141256Z AUTO 00000KT 10SM CLR M18/M20 A2963 RMK AO2 SLP046 T11831200 FZRANO
PAMH 141156Z AUTO 00000KT 10SM CLR M19/M22 A2964 RMK AO2 SLP050 T11941217 11150 21200 58000 FZRANO
PAMH 141056Z AUTO 00000KT 10SM CLR M19/M21 A2964 RMK AO2 SLP049 T11941211 FZRANO
PAMH 140956Z AUTO 00000KT 10SM CLR M16/M18 A2964 RMK AO2 SLP048 T11611178 FZRANO
PAMH 140856Z AUTO 00000KT 10SM CLR M17/M18 A2964 RMK AO2 SLP048 T11671183 410671178 50001 FZRANO
PAMH 140756Z AUTO 00000KT 10SM CLR M17/M19 A2964 RMK AO2 SLP051 T11671189 FZRANO
PAMH 140656Z AUTO 00000KT 10SM CLR M15/M17 A2964 RMK AO2 SLP049 T11501167 FZRANO
PAMH 140556Z AUTO 00000KT 10SM BKN085 M17/M18 A2963 RMK AO2 SLP047 T11671183 11144 21178 51005 FZRANO
PAMH 140456Z AUTO 00000KT 10SM OVC090 M15/M16 A2963 RMK AO2 SLP044 T11501161 FZRANO
PAMH 140356Z AUTO 00000KT 10SM CLR M16/M17 A2962 RMK AO2 SLP042 T11561172 FZRANO
PAMH 140256Z AUTO 00000KT 10SM OVC120 M18/M19 A2962 RMK AO2 SLP040 T11781194 51016 FZRANO
PAMH 140156Z AUTO 05003KT 10SM FEW120 M15/M17 A2960 RMK AO2 SLP035 T11501167 FZRANO
PAMH 140056Z AUTO 00000KT 10SM CLR M16/M17 A2959 RMK AO2 SLP030 T11611172 FZRANO
PAMH 132356Z AUTO 00000KT 10SM CLR M15/M17 A2957 RMK AO2 SLP024 T11501167 11133 21156 51020 FZRANO
PAMH 132256Z AUTO 00000KT 10SM BKN100 M14/M16 A2955 RMK AO2 SLP016 T11391161 FZRANO
PAMH 132156Z AUTO 00000KT 10SM SCT120 M14/M16 A2953 RMK AO2 SLP010 T11441161 FZRANO
PAMH 132056Z AUTO 00000KT 10SM SCT120 M15/M17 A2951 RMK AO2 PRESRR SLP001 T11501167 53027 FZRANO
PAMH 131956Z AUTO 00000KT 10SM SCT110 M14/M16 A2948 RMK AO2 SLP991 T11391156 FZRANO
PAMH 131856Z AUTO 00000KT 10SM CLR M14/M16 A2945 RMK AO2 SLP983 T11441156 FZRANO
PAMH 131756Z AUTO 00000KT 10SM CLR M14/M15 A2942 RMK AO2 SLP973 T11391150 11100 21139 53026 FZRANO
PAMH 131556Z AUTO VRB03KT 10SM OVC070 M11/M14 A2937 RMK AO2 SLP953 T11111139 FZRANO
PAMH 131456Z AUTO 08005KT 10SM BKN080 M12/M13 A2935 RMK AO2 SLP945 T11171133 53013 FZRANO
PAMH 131356Z AUTO 00000KT 10SM FEW120 M12/M13 A2933 RMK AO2 SLP940 T11171133 FZRANO
PAMH 131256Z AUTO 00000KT 10SM BKN120 M11/M13 A2932 RMK AO2 SLP936 T11111128 FZRANO
PAMH 131234Z AUTO 00000KT 10SM SCT020 M11/M13 A2932 RMK AO2 FZRANO
PAMH 131156Z AUTO 00000KT 10SM OVC020 M10/M12 A2931 RMK AO2 SLP931 T11001122 11067 21100 53010 FZRANO
PAMH 131056Z AUTO 06004KT 10SM OVC020 M08/M12 A2929 RMK AO2 SLP924 T10781117 FZRANO
PAMH 130956Z AUTO VRB05KT 10SM OVC022 M07/M11 A2928 RMK AO2 SLP923 T10721111 FZRANO
PAMH 130856Z AUTO 00000KT 10SM OVC022 M07/M11 A2927 RMK AO2 SLP919 T10671106 410441106 58005 FZRANO
PAMH 130756Z AUTO 00000KT 10SM OVC024 M08/M11 A2928 RMK AO2 SLP922 T10781111 FZRANO
PAMH 130656Z AUTO VRB04KT 10SM OVC022 M08/M11 A2928 RMK AO2 SLP922 T10781111 FZRANO
PAMH 130556Z AUTO VRB04KT 10SM OVC020 M07/M11 A2929 RMK AO2 SLP924 T10671106 11056 21067 58009 FZRANO
PAMH 130456Z AUTO 06005KT 10SM OVC020 M06/M09 A2930 RMK AO2 SLP928 T10611094 FZRANO
PAMH 130356Z AUTO 00000KT 10SM OVC020 M06/M09 A2931 RMK AO2 SLP931 T10611094 FZRANO
PAMH 130256Z AUTO 05004KT 10SM OVC018 M06/M09 A2932 RMK AO2 SLP934 T10611089 58012 FZRANO
PAMH 130156Z AUTO 05004KT 10SM OVC018 M06/M09 A2933 RMK AO2 SLP938 T10611089 FZRANO